createdAt,value
2022-08-28T00:01:01.582Z,99935.09
2022-08-28T00:03:30.433Z,99935.31
2022-08-28T00:05:57.714Z,99930.03
2022-08-28T00:08:24.843Z,99925.72
2022-08-28T00:10:52.293Z,99926.44
2022-08-28T00:13:21.695Z,99932.66
2022-08-28T00:15:52.036Z,99932.09
2022-08-28T00:18:19.823Z,99934.19
2022-08-28T00:20:47.652Z,99923.19
2022-08-28T00:23:14.937Z,99921.88
2022-08-28T00:25:42.272Z,99915.75
2022-08-28T00:28:23.755Z,99923.84
2022-08-28T00:30:54.985Z,99923.66
2022-08-28T00:33:30.035Z,99928.16
2022-08-28T00:35:58.232Z,99925.53
2022-08-28T00:38:27.340Z,99923.28
2022-08-28T00:40:58.385Z,99918.78
2022-08-28T00:43:36.818Z,99920.00
2022-08-28T00:46:09.458Z,99920.06
2022-08-28T00:48:37.229Z,99923.09
2022-08-28T00:51:24.610Z,99928.00
2022-08-28T00:53:58.050Z,99923.84
2022-08-28T00:56:26.943Z,99912.19
2022-08-28T00:58:56.986Z,99912.75
2022-08-28T01:01:24.477Z,99926.50
2022-08-28T01:03:51.621Z,99924.59
2022-08-28T01:06:20.895Z,99906.91
2022-08-28T01:08:50.634Z,99904.84
2022-08-28T01:11:19.711Z,99903.34
2022-08-28T01:13:48.743Z,99904.28
2022-08-28T01:16:18.279Z,99906.72
2022-08-28T01:18:47.033Z,99914.16
2022-08-28T01:21:36.923Z,99913.69
2022-08-28T01:24:15.147Z,99914.25
2022-08-28T01:26:43.485Z,99907.88
2022-08-28T01:29:12.098Z,99904.28
2022-08-28T01:31:40.746Z,99908.22
2022-08-28T01:34:10.029Z,99912.00
2022-08-28T01:36:37.167Z,99905.59
2022-08-28T01:39:17.174Z,99902.41
2022-08-28T01:41:47.024Z,99903.16
2022-08-28T01:44:18.149Z,99906.56
2022-08-28T01:46:46.640Z,99890.00
2022-08-28T01:49:14.202Z,99894.88
2022-08-28T01:51:42.640Z,99895.06
2022-08-28T01:54:10.900Z,99890.75
2022-08-28T01:56:39.766Z,99902.22
2022-08-28T01:59:08.964Z,99885.69
2022-08-28T02:01:37.026Z,99893.75
2022-08-28T02:04:04.700Z,99892.81
2022-08-28T02:06:32.530Z,99891.69
2022-08-28T02:09:00.674Z,99896.28
2022-08-28T02:11:30.071Z,99881.88
2022-08-28T02:13:57.162Z,99880.16
2022-08-28T02:16:25.640Z,99885.31
2022-08-28T02:18:53.415Z,99887.16
2022-08-28T02:21:20.663Z,99877.00
2022-08-28T02:23:48.136Z,99878.69
2022-08-28T02:26:15.823Z,99871.56
2022-08-28T02:28:43.582Z,99875.22
2022-08-28T02:31:11.387Z,99872.78
2022-08-28T02:33:43.902Z,99866.47
2022-08-28T02:36:13.258Z,99862.91
2022-08-28T02:38:40.561Z,99875.09
2022-08-28T02:41:08.494Z,99871.63
2022-08-28T02:43:35.608Z,99853.59
2022-08-28T02:46:03.195Z,99859.13
2022-08-28T02:48:32.481Z,99861.94
2022-08-28T02:51:02.999Z,99861.75
2022-08-28T02:53:30.620Z,99863.53
2022-08-28T02:55:58.943Z,99863.22
2022-08-28T02:58:27.470Z,99855.25
2022-08-28T03:00:55.307Z,99868.88
2022-08-28T03:03:22.620Z,99869.81
2022-08-28T03:05:50.047Z,99865.06
2022-08-28T03:08:17.885Z,99864.09
2022-08-28T03:10:45.093Z,99860.75
2022-08-28T03:13:23.093Z,99860.19
2022-08-28T03:15:55.894Z,99854.34
2022-08-28T03:18:25.397Z,99839.56
2022-08-28T03:20:53.812Z,99839.13
2022-08-28T03:23:26.889Z,99849.94
2022-08-28T03:26:10.071Z,99852.66
2022-08-28T03:28:42.020Z,99854.53
2022-08-28T03:31:13.494Z,99860.34
2022-08-28T03:33:42.939Z,99865.34
2022-08-28T03:36:12.432Z,99857.19
2022-08-28T03:38:39.782Z,99865.44
2022-08-28T03:41:11.841Z,99852.66
2022-08-28T03:43:39.098Z,99864.06
2022-08-28T03:46:06.763Z,99868.59
2022-08-28T03:48:36.911Z,99872.31
2022-08-28T03:51:19.654Z,99872.50
2022-08-28T03:53:53.073Z,99875.03
2022-08-28T03:56:23.981Z,99871.41
2022-08-28T03:58:53.618Z,99860.97
2022-08-28T04:01:21.574Z,99885.19
2022-08-28T04:03:49.162Z,99882.22
2022-08-28T04:06:17.011Z,99875.88
2022-08-28T04:08:44.073Z,99876.38
2022-08-28T04:11:11.274Z,99880.59
2022-08-28T04:13:38.332Z,99887.56
2022-08-28T04:16:11.769Z,99889.78
2022-08-28T04:18:41.233Z,99899.28
2022-08-28T04:21:14.300Z,99899.41
2022-08-28T04:23:43.472Z,99891.41
2022-08-28T04:26:13.712Z,99898.69
2022-08-28T04:28:41.234Z,99899.75
2022-08-28T04:31:08.564Z,99906.56
2022-08-28T04:33:36.163Z,99893.59
2022-08-28T04:36:09.328Z,99896.47
2022-08-28T04:38:41.654Z,99900.78
2022-08-28T04:41:14.830Z,99899.59
2022-08-28T04:43:43.210Z,99898.41
2022-08-28T04:46:13.332Z,99909.09
2022-08-28T04:48:41.464Z,99900.13
2022-08-28T04:51:10.693Z,99905.09
2022-08-28T04:53:38.615Z,99908.75
2022-08-28T04:56:08.196Z,99908.75
2022-08-28T04:58:35.835Z,99916.91
2022-08-28T05:01:09.015Z,99909.94
2022-08-28T05:03:36.197Z,99905.88
2022-08-28T05:06:04.026Z,99908.34
2022-08-28T05:08:32.152Z,99905.53
2022-08-28T05:11:32.707Z,99896.19
2022-08-28T05:14:04.778Z,99906.00
2022-08-28T05:16:33.349Z,99891.38
2022-08-28T05:19:02.293Z,99905.13
2022-08-28T05:21:29.611Z,99901.00
2022-08-28T05:23:58.200Z,99880.16
2022-08-28T05:26:27.096Z,99903.47
2022-08-28T05:28:57.490Z,99915.50
2022-08-28T05:31:25.923Z,99921.63
2022-08-28T05:33:54.147Z,99927.00
2022-08-28T05:36:23.297Z,99923.22
2022-08-28T05:38:56.625Z,99914.63
2022-08-28T05:41:26.937Z,99930.31
2022-08-28T05:43:54.892Z,99921.19
2022-08-28T05:46:23.411Z,99932.41
2022-08-28T05:48:50.735Z,99923.28
2022-08-28T05:51:22.270Z,99921.88
2022-08-28T05:53:50.302Z,99903.34
2022-08-28T05:56:24.120Z,99911.44
2022-08-28T05:58:51.385Z,99913.88
2022-08-28T06:01:24.322Z,99918.25
2022-08-28T06:04:00.929Z,99915.19
2022-08-28T06:06:30.522Z,99923.44
2022-08-28T06:09:04.731Z,99922.19
2022-08-28T06:11:32.875Z,99926.22
2022-08-28T06:14:02.451Z,99923.94
2022-08-28T06:16:31.897Z,99928.72
2022-08-28T06:19:00.731Z,99928.44
2022-08-28T06:21:29.248Z,99918.53
2022-08-28T06:23:56.735Z,99916.88
2022-08-28T06:26:24.152Z,99919.28
2022-08-28T06:28:52.616Z,99926.50
2022-08-28T06:31:24.557Z,99919.53
2022-08-28T06:33:54.629Z,99915.13
2022-08-28T06:36:22.491Z,99919.97
2022-08-28T06:38:49.733Z,99919.13
2022-08-28T06:41:16.877Z,99921.13
2022-08-28T06:43:44.072Z,99916.16
2022-08-28T06:46:11.386Z,99901.81
2022-08-28T06:48:38.620Z,99911.63
2022-08-28T06:51:07.776Z,99916.38
2022-08-28T06:53:35.654Z,99911.28
2022-08-28T06:56:08.704Z,99911.47
2022-08-28T06:58:37.917Z,99908.91
2022-08-28T07:01:29.871Z,99922.81
2022-08-28T07:04:00.364Z,99910.53
2022-08-28T07:06:30.762Z,99917.25
2022-08-28T07:08:58.011Z,99907.28
2022-08-28T07:11:31.715Z,99922.44
2022-08-28T07:13:59.729Z,99915.25
2022-08-28T07:16:30.774Z,99901.75
2022-08-28T07:18:58.982Z,99897.84
2022-08-28T07:21:27.271Z,99906.75
2022-08-28T07:23:55.216Z,99911.31
2022-08-28T07:26:26.295Z,99910.25
2022-08-28T07:28:57.790Z,99915.53
2022-08-28T07:31:43.014Z,99924.44
2022-08-28T07:34:12.247Z,99921.88
2022-08-28T07:36:40.213Z,99918.53
2022-08-28T07:39:07.981Z,99926.13
2022-08-28T07:41:39.322Z,99922.53
2022-08-28T07:44:25.800Z,99922.31
2022-08-28T07:46:58.155Z,99937.09
2022-08-28T07:49:26.448Z,99934.31
2022-08-28T07:51:54.631Z,99929.88
2022-08-28T07:54:22.885Z,99919.28
2022-08-28T07:56:50.949Z,99927.50
2022-08-28T07:59:19.426Z,99906.81
2022-08-28T08:01:48.951Z,99924.47
2022-08-28T08:04:17.498Z,99927.97
2022-08-28T08:06:45.848Z,99929.84
2022-08-28T08:09:16.085Z,99928.44
2022-08-28T08:11:43.612Z,99939.28
2022-08-28T08:14:11.577Z,99937.72
2022-08-28T08:16:42.023Z,99936.16
2022-08-28T08:19:10.477Z,99942.78
2022-08-28T08:21:38.113Z,99940.53
2022-08-28T08:24:05.599Z,99946.31
2022-08-28T08:26:33.867Z,99949.22
2022-08-28T08:29:01.479Z,99947.53
2022-08-28T08:31:35.223Z,99940.31
2022-08-28T08:34:05.153Z,99950.66
2022-08-28T08:36:35.468Z,99945.25
2022-08-28T08:39:06.441Z,99946.84
2022-08-28T08:41:50.205Z,99948.75
2022-08-28T08:44:33.648Z,99948.75
2022-08-28T08:47:09.562Z,99943.66
2022-08-28T08:49:42.545Z,99941.69
2022-08-28T08:52:12.476Z,99951.84
2022-08-28T08:54:45.095Z,99940.38
2022-08-28T08:57:15.034Z,99946.94
2022-08-28T08:59:42.518Z,99959.09
2022-08-28T09:02:18.653Z,99949.50
2022-08-28T09:05:01.925Z,99953.94
2022-08-28T09:07:38.285Z,99956.50
2022-08-28T09:10:11.251Z,99957.91
2022-08-28T09:12:55.845Z,99963.94
2022-08-28T09:15:42.632Z,99959.47
2022-08-28T09:18:21.059Z,99963.00
2022-08-28T09:20:58.845Z,99962.44
2022-08-28T09:23:30.098Z,99968.34
2022-08-28T09:26:01.727Z,99972.56
2022-08-28T09:28:41.321Z,99959.38
2022-08-28T09:31:14.063Z,99971.94
2022-08-28T09:33:49.911Z,99966.31
2022-08-28T09:36:34.386Z,99971.22
2022-08-28T09:39:18.313Z,99974.94
2022-08-28T09:42:07.192Z,99969.59
2022-08-28T09:44:46.322Z,99971.72
2022-08-28T09:47:36.758Z,99965.19
2022-08-28T09:50:36.279Z,99966.03
2022-08-28T09:53:09.434Z,99959.88
2022-08-28T09:55:55.664Z,99970.41
2022-08-28T09:58:28.331Z,99961.69
2022-08-28T10:01:10.291Z,99971.53
2022-08-28T10:03:52.566Z,99969.72
2022-08-28T10:06:29.644Z,99968.91
2022-08-28T10:09:05.210Z,99967.06
2022-08-28T10:12:07.755Z,99968.63
2022-08-28T10:14:49.378Z,99970.28
2022-08-28T10:17:54.054Z,99979.91
2022-08-28T10:20:43.632Z,99966.75
2022-08-28T10:23:17.888Z,99966.03
2022-08-28T10:25:51.692Z,99961.91
2022-08-28T10:28:47.475Z,99958.66
2022-08-28T10:31:31.589Z,99962.53
2022-08-28T10:34:13.904Z,99960.25
2022-08-28T10:36:42.837Z,99962.47
2022-08-28T10:39:51.479Z,99959.53
2022-08-28T10:42:43.446Z,99957.97
2022-08-28T10:45:19.053Z,99962.28
2022-08-28T10:47:53.355Z,99966.66
2022-08-28T10:50:28.417Z,99959.91
2022-08-28T10:53:10.783Z,99962.84
2022-08-28T10:55:44.696Z,99960.19
2022-08-28T10:58:23.818Z,99953.13
2022-08-28T11:01:01.336Z,99946.69
2022-08-28T11:03:35.114Z,99947.97
2022-08-28T11:06:11.751Z,99950.94
2022-08-28T11:08:40.095Z,99953.78
2022-08-28T11:11:14.022Z,99952.38
2022-08-28T11:13:44.567Z,99966.66
2022-08-28T11:16:23.021Z,99961.84
2022-08-28T11:19:27.811Z,99961.63
2022-08-28T11:22:16.097Z,99969.31
2022-08-28T11:24:49.344Z,99972.09
2022-08-28T11:27:29.934Z,99970.41
2022-08-28T11:30:01.991Z,99979.88
2022-08-28T11:32:34.858Z,99984.72
2022-08-28T11:35:12.368Z,99980.41
2022-08-28T11:37:45.084Z,99973.91
2022-08-28T11:40:55.053Z,99994.66
2022-08-28T11:43:22.508Z,99987.13
2022-08-28T11:45:55.883Z,99986.63
2022-08-28T11:48:23.004Z,99986.94
2022-08-28T11:50:58.783Z,99990.59
2022-08-28T11:53:38.073Z,99998.22
2022-08-28T11:56:33.354Z,99995.44
2022-08-28T11:59:12.800Z,99995.91
2022-08-28T12:01:40.569Z,99991.00
2022-08-28T12:04:15.648Z,99981.78
2022-08-28T12:06:48.629Z,99980.41
2022-08-28T12:09:45.258Z,99983.19
2022-08-28T12:12:19.298Z,99983.47
2022-08-28T12:14:46.530Z,99978.69
2022-08-28T12:17:17.923Z,99982.59
2022-08-28T12:19:55.226Z,99976.13
2022-08-28T12:22:44.303Z,99973.25
2022-08-28T12:25:32.811Z,99973.53
2022-08-28T12:28:18.936Z,99972.09
2022-08-28T12:31:02.103Z,99978.25
2022-08-28T12:33:50.801Z,99970.97
2022-08-28T12:36:26.933Z,99982.19
2022-08-28T12:38:56.173Z,99977.72
2022-08-28T12:41:27.367Z,99971.13
2022-08-28T12:43:58.680Z,99976.19
2022-08-28T12:46:28.516Z,99970.16
2022-08-28T12:49:02.445Z,99975.72
2022-08-28T12:51:33.269Z,99977.94
2022-08-28T12:54:05.968Z,99978.97
2022-08-28T12:56:37.047Z,99972.78
2022-08-28T12:59:27.487Z,99978.34
2022-08-28T13:01:55.222Z,99984.75
2022-08-28T13:04:36.173Z,99986.13
2022-08-28T13:07:16.752Z,99975.75
2022-08-28T13:09:49.517Z,99981.47
2022-08-28T13:12:55.225Z,99976.38
2022-08-28T13:15:50.712Z,99971.59
2022-08-28T13:18:39.184Z,99977.03
2022-08-28T13:21:24.569Z,99984.03
2022-08-28T13:24:22.349Z,99973.28
2022-08-28T13:26:59.587Z,99980.84
2022-08-28T13:29:27.239Z,99970.97
2022-08-28T13:32:00.448Z,99973.09
2022-08-28T13:34:29.984Z,99974.78
2022-08-28T13:37:05.835Z,99970.91
2022-08-28T13:39:42.012Z,99969.72
2022-08-28T13:42:16.255Z,99970.19
2022-08-28T13:44:54.006Z,99967.25
2022-08-28T13:47:21.096Z,99966.28
2022-08-28T13:49:49.295Z,99968.22
2022-08-28T13:52:16.578Z,99963.75
2022-08-28T13:54:45.519Z,99957.59
2022-08-28T13:57:14.005Z,99964.34
2022-08-28T13:59:41.675Z,99971.31
2022-08-28T14:02:31.405Z,99972.16
2022-08-28T14:04:58.892Z,99969.38
2022-08-28T14:07:26.230Z,99972.78
2022-08-28T14:09:56.383Z,99967.75
2022-08-28T14:12:33.037Z,99959.94
2022-08-28T14:15:02.383Z,99978.97
2022-08-28T14:17:29.964Z,99974.75
2022-08-28T14:19:57.403Z,99966.94
2022-08-28T14:22:24.484Z,99970.56
2022-08-28T14:24:51.703Z,99972.25
2022-08-28T14:27:18.975Z,99971.66
2022-08-28T14:29:46.463Z,99976.63
2022-08-28T14:32:13.652Z,99984.16
2022-08-28T14:34:41.584Z,99981.03
2022-08-28T14:37:08.765Z,99980.69
2022-08-28T14:39:36.039Z,99969.50
2022-08-28T14:42:06.416Z,99974.78
2022-08-28T14:44:40.436Z,99970.59
2022-08-28T14:47:07.555Z,99976.47
2022-08-28T14:49:34.765Z,99977.91
2022-08-28T14:52:02.077Z,99965.34
2022-08-28T14:54:29.332Z,99973.53
2022-08-28T14:56:56.696Z,99971.31
2022-08-28T14:59:27.874Z,99964.06
2022-08-28T15:01:58.402Z,99970.13
2022-08-28T15:04:27.916Z,99958.63
2022-08-28T15:06:59.575Z,99965.75
2022-08-28T15:09:27.575Z,99967.94
2022-08-28T15:11:55.101Z,99970.41
2022-08-28T15:14:22.614Z,99977.69
2022-08-28T15:16:50.204Z,99976.47
2022-08-28T15:19:18.451Z,99983.66
2022-08-28T15:21:49.743Z,99973.19
2022-08-28T15:24:19.134Z,99977.56
2022-08-28T15:26:47.209Z,99981.19
2022-08-28T15:29:14.950Z,99986.88
2022-08-28T15:31:45.690Z,99985.56
2022-08-28T15:34:16.957Z,99986.06
2022-08-28T15:36:54.632Z,99986.56
2022-08-28T15:39:47.422Z,99991.38
2022-08-28T15:42:14.885Z,99975.44
2022-08-28T15:44:43.933Z,99991.38
2022-08-28T15:47:12.804Z,99996.91
2022-08-28T15:49:48.973Z,100007.78
2022-08-28T15:52:18.814Z,100004.63
2022-08-28T15:54:46.227Z,100006.59
2022-08-28T15:57:13.412Z,100007.06
2022-08-28T15:59:49.060Z,100009.00
2022-08-28T16:02:23.045Z,99992.38
2022-08-28T16:04:50.374Z,100001.03
2022-08-28T16:07:19.497Z,100015.16
2022-08-28T16:09:46.940Z,100010.19
2022-08-28T16:12:14.421Z,100006.81
2022-08-28T16:14:41.731Z,100001.16
2022-08-28T16:17:11.114Z,100001.88
2022-08-28T16:19:41.887Z,100007.31
2022-08-28T16:22:10.464Z,99995.25
2022-08-28T16:24:38.055Z,100002.97
2022-08-28T16:27:06.195Z,99989.09
2022-08-28T16:29:35.579Z,99991.66
2022-08-28T16:32:04.834Z,99988.25
2022-08-28T16:34:33.476Z,99966.44
2022-08-28T16:37:01.493Z,99987.00
2022-08-28T16:39:29.204Z,99984.34
2022-08-28T16:41:56.573Z,99988.44
2022-08-28T16:44:28.205Z,99998.56
2022-08-28T16:46:56.334Z,99995.66
2022-08-28T16:49:24.061Z,100014.53
2022-08-28T16:51:51.904Z,100016.81
2022-08-28T16:54:19.651Z,100023.28
2022-08-28T16:56:47.143Z,100031.44
2022-08-28T16:59:23.477Z,100024.69
2022-08-28T17:01:53.680Z,100029.00
2022-08-28T17:04:21.494Z,100032.78
2022-08-28T17:06:48.999Z,100034.91
2022-08-28T17:09:16.195Z,100023.72
2022-08-28T17:11:43.636Z,100032.22
2022-08-28T17:14:12.215Z,100041.34
2022-08-28T17:16:39.614Z,100053.19
2022-08-28T17:19:06.796Z,100059.78
2022-08-28T17:21:52.401Z,100072.31
2022-08-28T17:24:20.123Z,100060.69
2022-08-28T17:26:47.659Z,100071.13
2022-08-28T17:29:15.835Z,100075.06
2022-08-28T17:31:43.086Z,100087.78
2022-08-28T17:34:10.776Z,100088.00
2022-08-28T17:36:40.268Z,100092.66
2022-08-28T17:39:10.558Z,100102.63
2022-08-28T17:41:39.494Z,100105.56
2022-08-28T17:44:07.644Z,100119.06
2022-08-28T17:46:37.972Z,100127.97
2022-08-28T17:49:07.554Z,100127.34
2022-08-28T17:51:43.277Z,100132.72
2022-08-28T17:54:18.547Z,100123.31
2022-08-28T17:56:46.661Z,100123.31
2022-08-28T17:59:15.335Z,100126.91
2022-08-28T18:01:45.178Z,100126.28
2022-08-28T18:04:13.262Z,100123.72
2022-08-28T18:06:40.994Z,100127.34
2022-08-28T18:09:10.005Z,100119.72
2022-08-28T18:11:37.727Z,100129.66
2022-08-28T18:14:05.865Z,100140.44
2022-08-28T18:16:34.373Z,100119.91
2022-08-28T18:19:02.233Z,100129.63
2022-08-28T18:21:29.724Z,100131.34
2022-08-28T18:23:57.655Z,100129.75
2022-08-28T18:26:24.793Z,100139.56
2022-08-28T18:28:52.855Z,100147.91
2022-08-28T18:31:20.482Z,100152.88
2022-08-28T18:33:47.910Z,100158.88
2022-08-28T18:36:16.226Z,100171.38
2022-08-28T18:38:44.684Z,100175.59
2022-08-28T18:41:12.386Z,100169.00
2022-08-28T18:43:39.581Z,100172.97
2022-08-28T18:46:09.512Z,100184.47
2022-08-28T18:48:38.138Z,100173.56
2022-08-28T18:51:12.615Z,100163.78
2022-08-28T18:53:42.383Z,100170.84
2022-08-28T18:56:12.264Z,100179.38
2022-08-28T18:58:40.877Z,100190.97
2022-08-28T19:01:09.534Z,100200.19
2022-08-28T19:03:37.287Z,100195.31
2022-08-28T19:06:06.471Z,100196.03
2022-08-28T19:08:35.622Z,100193.00
2022-08-28T19:11:07.923Z,100195.47
2022-08-28T19:13:35.670Z,100220.34
2022-08-28T19:16:03.411Z,100217.31
2022-08-28T19:18:31.027Z,100221.44
2022-08-28T19:21:05.301Z,100227.06
2022-08-28T19:23:32.753Z,100229.13
2022-08-28T19:25:59.961Z,100236.63
2022-08-28T19:28:27.334Z,100228.16
2022-08-28T19:30:55.172Z,100222.44
2022-08-28T19:33:22.484Z,100234.44
2022-08-28T19:35:50.365Z,100224.28
2022-08-28T19:38:18.168Z,100228.94
2022-08-28T19:40:45.766Z,100241.28
2022-08-28T19:43:16.556Z,100227.00
2022-08-28T19:45:45.619Z,100246.72
2022-08-28T19:48:13.162Z,100242.66
2022-08-28T19:50:41.241Z,100217.19
2022-08-28T19:53:10.076Z,100236.97
2022-08-28T19:55:37.403Z,100240.28
2022-08-28T19:58:06.789Z,100248.41
2022-08-28T20:00:35.714Z,100255.53
2022-08-28T20:03:03.068Z,100257.44
2022-08-28T20:05:30.265Z,100253.50
2022-08-28T20:07:57.623Z,100250.13
2022-08-28T20:10:26.590Z,100253.00
2022-08-28T20:12:54.296Z,100248.00
2022-08-28T20:15:21.756Z,100243.84
2022-08-28T20:17:49.450Z,100262.88
2022-08-28T20:20:25.602Z,100265.41
2022-08-28T20:22:55.260Z,100255.03
2022-08-28T20:25:23.854Z,100262.69
2022-08-28T20:27:50.953Z,100258.34
2022-08-28T20:30:18.396Z,100255.72
2022-08-28T20:32:45.710Z,100262.59
2022-08-28T20:35:13.738Z,100262.59
2022-08-28T20:37:45.193Z,100269.66
2022-08-28T20:40:18.824Z,100275.75
2022-08-28T20:42:46.674Z,100267.97
2022-08-28T20:45:15.355Z,100276.59
2022-08-28T20:47:43.066Z,100274.06
2022-08-28T20:50:10.727Z,100272.88
2022-08-28T20:52:38.635Z,100262.34
2022-08-28T20:55:10.723Z,100261.31
2022-08-28T20:57:37.915Z,100263.84
2022-08-28T21:00:08.507Z,100263.84
2022-08-28T21:02:36.610Z,100240.09
2022-08-28T21:05:04.180Z,100264.91
2022-08-28T21:07:33.632Z,100269.59
2022-08-28T21:10:05.958Z,100272.88
2022-08-28T21:12:39.194Z,100276.69
2022-08-28T21:15:08.856Z,100283.75
2022-08-28T21:17:36.291Z,100277.91
2022-08-28T21:20:10.293Z,100285.63
2022-08-28T21:22:38.436Z,100279.50
2022-08-28T21:25:08.925Z,100288.44
2022-08-28T21:27:36.891Z,100298.94
2022-08-28T21:30:06.888Z,100303.28
2022-08-28T21:32:34.500Z,100307.53
2022-08-28T21:35:04.202Z,100315.53
2022-08-28T21:37:31.531Z,100312.28
2022-08-28T21:39:59.806Z,100315.84
2022-08-28T21:42:28.216Z,100311.59
2022-08-28T21:44:55.581Z,100324.84
2022-08-28T21:47:24.221Z,100328.38
2022-08-28T21:49:56.354Z,100323.28
2022-08-28T21:52:28.001Z,100320.75
2022-08-28T21:55:04.191Z,100332.31
2022-08-28T21:57:32.352Z,100330.75
2022-08-28T21:59:59.800Z,100328.44
2022-08-28T22:02:27.729Z,100338.66
2022-08-28T22:04:54.874Z,100336.25
2022-08-28T22:07:22.130Z,100326.97
2022-08-28T22:09:49.606Z,100341.91
2022-08-28T22:12:16.940Z,100341.22
2022-08-28T22:14:44.122Z,100341.38
2022-08-28T22:17:12.033Z,100332.03
2022-08-28T22:19:40.072Z,100334.75
2022-08-28T22:22:26.949Z,100338.06
2022-08-28T22:24:54.311Z,100340.06
2022-08-28T22:27:21.922Z,100342.72
2022-08-28T22:29:49.031Z,100347.97
2022-08-28T22:32:16.153Z,100351.53
2022-08-28T22:34:46.704Z,100357.66
2022-08-28T22:37:14.030Z,100343.19
2022-08-28T22:39:42.373Z,100349.81
2022-08-28T22:42:10.574Z,100352.56
2022-08-28T22:44:38.628Z,100349.13
2022-08-28T22:47:06.385Z,100357.09
2022-08-28T22:49:33.943Z,100348.63
2022-08-28T22:52:03.287Z,100343.19
2022-08-28T22:54:32.715Z,100342.47
2022-08-28T22:56:59.886Z,100343.50
2022-08-28T22:59:28.225Z,100336.72
2022-08-28T23:01:55.344Z,100333.91
2022-08-28T23:04:22.558Z,100334.84
2022-08-28T23:06:50.384Z,100330.06
2022-08-28T23:09:17.583Z,100326.66
2022-08-28T23:11:44.743Z,100335.84
2022-08-28T23:14:12.573Z,100321.25
2022-08-28T23:16:39.886Z,100335.00
2022-08-28T23:19:09.662Z,100343.81
2022-08-28T23:21:43.828Z,100336.09
2022-08-28T23:24:13.239Z,100337.19
2022-08-28T23:26:40.785Z,100336.41
2022-08-28T23:29:08.398Z,100330.38
2022-08-28T23:31:36.530Z,100335.78
2022-08-28T23:34:06.300Z,100328.22
2022-08-28T23:36:35.245Z,100333.53
2022-08-28T23:39:03.437Z,100332.84
2022-08-28T23:41:31.831Z,100331.13
2022-08-28T23:43:58.957Z,100330.28
2022-08-28T23:46:26.076Z,100338.19
2022-08-28T23:48:53.328Z,100340.75
2022-08-28T23:51:22.190Z,100338.19
2022-08-28T23:53:50.153Z,100349.63
2022-08-28T23:56:18.431Z,100333.28
2022-08-28T23:58:45.766Z,100336.88
